Weather reports worldwide

Advertisment
Inverness/Dalcross, United Kingdom (3059): temperature & dewpoint: 17.09.2018 02:00:00 - 23.09.2018 02:00:00 (BST)Inverness/Dalcross, United Kingdom (3059): wind speed: 17.09.2018 02:00:00 - 23.09.2018 02:00:00 (BST)Inverness/Dalcross, United Kingdom (3059): wind direction: 17.09.2018 02:00:00 - 23.09.2018 02:00:00 (BST)Inverness/Dalcross, United Kingdom (3059): visibility: 17.09.2018 02:00:00 - 23.09.2018 02:00:00 (BST)
Date & Time tt [°C] td [°C] ff [km/h] ff [kn] dd vv [km]
23.09.2018 02:00:00 7,0 6,0 9 5 SW 10
23.09.2018 01:00:00 7,0 6,0 11 6 SW 10
23.09.2018 00:00:00 7,0 6,0 5 3 SW 10
22.09.2018 23:00:00 8,0 6,0 13 7 WSW 10
22.09.2018 22:00:00 8,0 6,0 16 9 SW 10
22.09.2018 21:00:00 9,0 6,0 13 7 W 10
22.09.2018 20:00:00 9,0 6,0 13 7 WSW 10
22.09.2018 19:00:00 10,0 6,0 16 9 W 10
22.09.2018 18:00:00 10,0 6,0 18 10 W 10
22.09.2018 17:00:00 10,0 8,0 16 9 WNW 10
22.09.2018 16:00:00 12,0 7,0 16 9 W 10
22.09.2018 15:00:00 11,0 6,0 31 17 W 10
22.09.2018 14:00:00 11,0 7,0 21 11 WNW 10
22.09.2018 13:00:00 12,0 6,0 31 17 W 10
22.09.2018 12:00:00 12,0 7,0 31 17 W 10
22.09.2018 11:00:00 11,0 6,0 35 19 W 10
22.09.2018 10:00:00 10,0 7,0 34 18 W 10
22.09.2018 09:00:00 10,0 6,0 31 17 WSW 10
22.09.2018 08:00:00 9,0 6,0 31 17 WSW 10
22.09.2018 07:00:00 8,0 5,0 35 19 WSW 10
22.09.2018 06:00:00 8,0 4,0 34 18 WSW 10
22.09.2018 05:00:00 8,0 5,0 46 25 WSW 10
22.09.2018 04:00:00 8,0 5,0 31 17 SW 10
22.09.2018 03:00:00 8,0 6,0 31 17 SW 10
22.09.2018 02:00:00 8,0 6,0 26 14 WSW 10
22.09.2018 01:00:00 8,0 6,0 24 13 W 10
22.09.2018 00:00:00 7,0 5,0 22 12 WSW 10
21.09.2018 23:00:00 7,0 5,0 31 17 WSW 10
21.09.2018 22:00:00 7,0 5,0 28 15 SW 10
21.09.2018 21:00:00 8,0 5,0 26 14 WSW 10
21.09.2018 20:00:00 8,0 5,0 15 8 SW 10
21.09.2018 19:00:00 10,0 5,0 29 16 W 10
21.09.2018 18:00:00 11,0 5,0 28 15 W 10
21.09.2018 17:00:00 12,0 5,0 31 17 WSW 10
21.09.2018 16:00:00 13,0 6,0 22 12 W 10
21.09.2018 15:00:00 12,0 5,0 22 12 WNW 10
21.09.2018 14:00:00 11,0 6,0 22 12 NW 10
21.09.2018 13:00:00 11,0 6,0 24 13 WNW 10
21.09.2018 12:00:00 10,0 7,0 16 9 WNW 10
21.09.2018 11:00:00 9,0 7,0 11 6 WNW 10
21.09.2018 10:00:00 8,0 7,0 11 6 WNW 8
21.09.2018 09:00:00 8,0 6,0 13 7 NW 8
21.09.2018 08:00:00 9,0 5,0 28 15 WSW 10
21.09.2018 07:00:00 9,0 5,0 24 13 W 10
21.09.2018 06:00:00 8,0 6,0 16 9 WSW 10
21.09.2018 05:00:00 8,0 6,0 18 10 SW 10
21.09.2018 04:00:00 7,0 6,0 16 9 SW 10
21.09.2018 03:00:00 7,0 6,0 11 6 WSW 10
21.09.2018 02:00:00 6,0 5,0 8 4 SW 10
21.09.2018 01:00:00 7,0 5,0 2 1 SW 10
21.09.2018 00:00:00 7,0 5,0 8 4 SW 10
20.09.2018 23:00:00 8,0 6,0 5 3 SW 10
20.09.2018 22:00:00 8,0 6,0 11 6 SSW 10
20.09.2018 21:00:00 9,0 6,0 8 4 SSW 10
20.09.2018 20:00:00 9,0 5,0 8 4 SSW 10
20.09.2018 19:00:00 11,0 6,0 18 10 SW 10
20.09.2018 18:00:00 12,0 6,0 18 10 SSW 10
20.09.2018 17:00:00 13,0 6,0 21 11 SSW 10
20.09.2018 16:00:00 14,0 5,0 24 13 WSW 10
20.09.2018 15:00:00 13,0 6,0 41 22 WSW 10
20.09.2018 14:00:00 14,0 7,0 48 26 SW 10
20.09.2018 13:00:00 14,0 6,0 46 25 WSW 10
20.09.2018 12:00:00 14,0 7,0 48 26 SW 10
20.09.2018 11:00:00 12,0 7,0 50 27 SW 10
20.09.2018 10:00:00 11,0 6,0 48 26 SW 10
20.09.2018 09:00:00 10,0 6,0 34 18 SW 10
20.09.2018 08:00:00 9,0 6,0 34 18 SW 10
20.09.2018 07:00:00 8,0 6,0 37 20 SW 10
20.09.2018 06:00:00 9,0 6,0 42 23 SW 10
20.09.2018 05:00:00 9,0 6,0 44 24 SW 10
20.09.2018 04:00:00 9,0 6,0 41 22 SW 10
20.09.2018 03:00:00 9,0 6,0 37 20 SSW 10
20.09.2018 02:00:00 8,0 6,0 44 24 SSW 10
20.09.2018 01:00:00 9,0 6,0 39 21 SW 10
20.09.2018 00:00:00 8,0 5,0 34 18 SSW 10
19.09.2018 23:00:00 - - - - - -
19.09.2018 22:00:00 8,0 6,0 41 22 SW 10
19.09.2018 21:00:00 8,0 7,0 42 23 SW 10
19.09.2018 20:00:00 8,0 6,0 41 22 SW 10
19.09.2018 19:00:00 9,0 7,0 50 27 SW 10
19.09.2018 18:00:00 10,0 6,0 44 24 SW 10
19.09.2018 17:00:00 11,0 8,0 59 32 SW 10
19.09.2018 16:00:00 12,0 7,0 67 36 WSW 10
19.09.2018 15:00:00 13,0 10,0 55 30 SW 10
19.09.2018 14:00:00 13,0 11,0 16 9 SSW 10
19.09.2018 13:00:00 11,0 10,0 4 2 - 4,0
19.09.2018 12:00:00 11,0 9,0 18 10 NNE 10
19.09.2018 11:00:00 11,0 8,0 8 4 NE 10
19.09.2018 10:00:00 11,0 7,0 18 10 S 10
19.09.2018 09:00:00 11,0 6,0 29 16 SSW 10
19.09.2018 08:00:00 11,0 7,0 37 20 SW 10
19.09.2018 07:00:00 9,0 8,0 16 9 SW 10
19.09.2018 06:00:00 10,0 8,0 29 16 SW 10
19.09.2018 05:00:00 9,0 7,0 22 12 WSW 10
19.09.2018 04:00:00 8,0 7,0 26 14 SSW 10
19.09.2018 03:00:00 7,0 6,0 18 10 SSW 10
19.09.2018 02:00:00 8,0 7,0 61 33 SW 5
19.09.2018 01:00:00 8,0 6,0 0 0 N 10
19.09.2018 00:00:00 9,0 8,0 5 3 - 10
18.09.2018 23:00:00 11,0 9,0 18 10 SSW 10
18.09.2018 22:00:00 13,0 10,0 26 14 SW 10
18.09.2018 21:00:00 13,0 11,0 15 8 SSW 10
18.09.2018 20:00:00 13,0 11,0 16 9 SSW 10
18.09.2018 19:00:00 14,0 11,0 39 21 SW 10
18.09.2018 18:00:00 15,0 11,0 35 19 SW 10
18.09.2018 17:00:00 16,0 13,0 44 24 SW 10
18.09.2018 16:00:00 14,0 14,0 4 2 - 10
18.09.2018 15:00:00 14,0 13,0 11 6 NE 6
18.09.2018 14:00:00 13,0 13,0 13 7 NNE 6
18.09.2018 13:00:00 13,0 13,0 18 10 ENE 6
18.09.2018 12:00:00 13,0 13,0 21 11 ENE 4,0
18.09.2018 11:00:00 13,0 13,0 13 7 NE 2,0
18.09.2018 10:00:00 13,0 13,0 9 5 NNE 2,0
18.09.2018 09:00:00 14,0 13,0 8 4 NE 3,5
18.09.2018 08:00:00 14,0 13,0 5 3 S 6
18.09.2018 07:00:00 14,0 13,0 4 2 - 6
18.09.2018 06:00:00 15,0 14,0 9 5 SW 10
18.09.2018 05:00:00 15,0 14,0 13 7 W 10
18.09.2018 04:00:00 16,0 14,0 11 6 SW 10
18.09.2018 03:00:00 15,0 14,0 4 2 - 10
18.09.2018 02:00:00 15,0 14,0 18 10 WSW 10
18.09.2018 01:00:00 16,0 15,0 24 13 SW 10
18.09.2018 00:00:00 15,0 15,0 16 9 SW 10
17.09.2018 23:00:00 15,0 14,0 15 8 W 10
17.09.2018 22:00:00 15,0 14,0 5 3 - 10
17.09.2018 21:00:00 14,0 12,0 2 1 - 10
17.09.2018 20:00:00 15,0 12,0 4 2 - 10
17.09.2018 19:00:00 15,0 12,0 18 10 S 10
17.09.2018 18:00:00 - - - - - -
17.09.2018 17:00:00 15,0 11,0 15 8 SSE 10
17.09.2018 16:00:00 14,0 11,0 9 5 SSE 10
17.09.2018 15:00:00 14,0 11,0 8 4 SSE 10
17.09.2018 14:00:00 15,0 12,0 9 5 - 10
17.09.2018 13:00:00 14,0 12,0 8 4 N 10
17.09.2018 12:00:00 14,0 12,0 4 2 - 10
17.09.2018 11:00:00 13,0 12,0 13 7 SW 10
17.09.2018 10:00:00 13,0 12,0 18 10 SW 10
17.09.2018 09:00:00 12,0 11,0 2 1 SE 10
17.09.2018 08:00:00 - - - - - -
17.09.2018 07:00:00 11,0 10,0 4 2 - 9
17.09.2018 06:00:00 12,0 9,0 9 5 SSW 10
17.09.2018 05:00:00 11,0 8,0 8 4 WSW 10
17.09.2018 04:00:00 11,0 8,0 21 11 SW 10
17.09.2018 03:00:00 11,0 8,0 22 12 SSW 10
17.09.2018 02:00:00 11,0 9,0 13 7 WSW 10

tt = temperature
td = dewpoint
ff = wind speed
dd = wind direction
vv = visibility

Next stations